CYLW

Kelowna International Airport

Kelowna, British Columbia, Canada
TAF CYLW 231238Z 2313/2401 VRB03KT P6SM FEW100 BECMG 2316/2318 35010KT FM232100 35010KT P6SM SCT090CB RMK FCST BASED ON AUTO OBS. NXT FCST BY 231900Z
Issued Valid From Valid To
Jul-23 @ 12:38 UTC
(an hour ago)
Jul-23 @ 13:00 UTC
(44 minutes ago)
Jul-24 @ 01:00 UTC
(in 11 hours)
Jul-23 @ 13:00 to Jul-23 @ 16:00
TAF CYLW 231238Z 2313/2401 VRB03KT P6SM FEW100
Wind Visibility Clouds
Variable at 3 knots Greater than 6 miles
  • Few at 10,000' AGL
Becoming Jul-23 @ 16:00 to Jul-23 @ 21:00
BECMG 2316/2318 35010KT
Wind Visibility Clouds
350° at 10 knots Greater than 6 miles
  • Few at 10,000' AGL
From Jul-23 @ 21:00 to Jul-24 @ 01:00
FM232100 35010KT P6SM SCT090CB RMK FCST BASED ON AUTO OBS. NXT FCST BY 231900Z
Wind Visibility Clouds
350° at 10 knots Greater than 6 miles
  • Scattered at 9,000' AGL
TAF CYLW 231238Z 2313/2401 VRB03KT P6SM FEW100 BECMG 2316/2318 35010KT FM232100 35010KT P6SM SCT090CB RMK FCST BASED ON AUTO OBS. NXT FCST BY 231900Z
Issued Jul-23 @ 12:38 UTC
(an hour ago)
Valid From Jul-23 @ 13:00 UTC
(44 minutes ago)
Valid To Jul-24 @ 01:00 UTC
(in 11 hours)
Jul-23 @ 13:00 - Jul-23 @ 16:00
Wind Visibility
Variable at 3 knots Greater than 6 miles
Clouds
  • Few at 10,000' AGL
Becoming Jul-23 @ 16:00 - Jul-23 @ 21:00
Wind Visibility
350° at 10 knots Greater than 6 miles
Clouds
  • Few at 10,000' AGL
From Jul-23 @ 21:00 - Jul-24 @ 01:00
Wind Visibility
350° at 10 knots Greater than 6 miles
Clouds
  • Scattered at 9,000' AGL